Time;durP1;ratioP1;P1;durP2;ratioP2;P2;SDS_P1;SDS_P2;PMS_P1;PMS_P2;Temp;Humidity;BMP_temperature;BMP_pressure;BME280_temperature;BME280_humidity;BME280_pressure;Samples;Min_cycle;Max_cycle;Signal;HPM_P1;HPM_P2
2021/04/05 00:02:07;;;;;;;15.40;9.93;;;;;;;3.94;55.52;99804.56;122253;1152;22541;-75
2021/04/05 00:04:39;;;;;;;16.95;9.78;;;;;;;3.97;55.65;99793.83;122114;1152;22519;-74
2021/04/05 00:07:08;;;;;;;16.43;9.65;;;;;;;3.99;55.50;99795.31;122251;1152;23061;-75
2021/04/05 00:09:39;;;;;;;18.23;10.23;;;;;;;3.96;55.48;99800.81;122144;1152;22633;-76
2021/04/05 00:12:12;;;;;;;15.05;9.78;;;;;;;3.95;55.45;99793.13;122177;1152;22571;-74
2021/04/05 00:14:47;;;;;;;20.18;12.30;;;;;;;3.91;55.64;99781.31;122260;1152;22544;-75
2021/04/05 00:17:16;;;;;;;21.10;13.08;;;;;;;3.90;55.62;99775.27;122160;1152;22610;-74
2021/04/05 00:19:45;;;;;;;20.38;12.98;;;;;;;3.89;55.62;99783.23;122159;1152;24683;-74
2021/04/05 00:22:13;;;;;;;19.13;12.85;;;;;;;3.88;55.57;99771.14;122147;1152;22548;-75
2021/04/05 00:24:46;;;;;;;19.55;12.45;;;;;;;3.89;56.01;99770.16;122215;1152;22551;-76
2021/04/05 00:27:14;;;;;;;16.30;10.83;;;;;;;3.92;56.09;99769.89;122174;1152;22554;-75
2021/04/05 00:29:46;;;;;;;20.03;14.43;;;;;;;3.93;55.96;99761.08;122277;1152;22770;-78
2021/04/05 00:32:14;;;;;;;21.18;14.93;;;;;;;3.92;56.08;99756.82;122410;1154;22914;-75
2021/04/05 00:34:43;;;;;;;21.15;13.63;;;;;;;3.91;56.06;99744.73;122143;1152;22644;-75
2021/04/05 00:37:13;;;;;;;17.33;12.28;;;;;;;3.91;56.81;99747.34;122272;1152;22571;-74
2021/04/05 00:39:42;;;;;;;18.33;12.80;;;;;;;3.91;56.25;99736.89;122202;1152;22546;-74
2021/04/05 00:42:12;;;;;;;18.50;12.33;;;;;;;3.89;56.33;99736.20;122205;1152;22547;-74
2021/04/05 00:44:41;;;;;;;18.20;10.55;;;;;;;3.89;56.35;99731.79;122216;1152;22543;-74
2021/04/05 00:47:10;;;;;;;21.30;13.08;;;;;;;3.92;56.22;99720.23;122187;1152;22557;-74
2021/04/05 00:49:42;;;;;;;21.07;12.00;;;;;;;3.90;56.28;99720.39;122232;1155;22562;-74
2021/04/05 00:52:14;;;;;;;20.15;12.90;;;;;;;3.88;56.26;99713.65;122223;1152;22559;-75
2021/04/05 00:54:43;;;;;;;23.23;12.65;;;;;;;3.87;56.69;99698.95;122179;1152;22609;-74
2021/04/05 00:57:12;;;;;;;20.95;12.23;;;;;;;3.86;56.54;99694.66;122304;1152;22557;-75
2021/04/05 00:59:40;;;;;;;21.45;13.18;;;;;;;3.85;56.63;99688.62;122216;1152;22547;-75
2021/04/05 01:02:09;;;;;;;17.05;12.83;;;;;;;3.85;56.80;99693.84;122219;1154;22555;-74
2021/04/05 01:04:37;;;;;;;17.73;12.28;;;;;;;3.86;56.79;99676.38;121788;1155;22573;-74
2021/04/05 01:07:06;;;;;;;21.33;13.98;;;;;;;3.88;56.69;99682.30;122070;1157;22572;-76
2021/04/05 01:09:34;;;;;;;21.05;13.90;;;;;;;3.87;56.91;99675.43;121759;1155;22596;-77
2021/04/05 01:12:03;;;;;;;22.30;13.03;;;;;;;3.86;56.92;99668.53;122098;1155;22611;-75
2021/04/05 01:14:32;;;;;;;17.90;12.98;;;;;;;3.85;56.92;99669.51;121777;1155;22791;-75
2021/04/05 01:17:02;;;;;;;21.43;13.98;;;;;;;3.84;56.97;99666.08;121683;1155;22548;-74
2021/04/05 01:19:31;;;;;;;24.63;14.23;;;;;;;3.86;56.98;99660.70;122038;1155;23078;-76
2021/04/05 01:22:01;;;;;;;24.68;14.98;;;;;;;3.86;57.09;99656.29;121718;1155;23566;-73
2021/04/05 01:24:32;;;;;;;23.53;17.33;;;;;;;3.84;56.83;99650.41;121736;1155;22570;-74
2021/04/05 01:27:01;;;;;;;21.73;15.85;;;;;;;3.83;56.96;99648.73;121518;1158;22580;-74
2021/04/05 01:29:29;;;;;;;21.50;16.23;;;;;;;3.84;57.45;99631.30;121692;1155;22556;-74
2021/04/05 01:32:01;;;;;;;20.50;16.18;;;;;;;3.85;57.25;99630.31;121745;1155;23020;-74
2021/04/05 01:34:30;;;;;;;20.33;16.87;;;;;;;3.86;57.21;99626.73;121735;1155;24764;-75
2021/04/05 01:37:02;;;;;;;24.88;18.33;;;;;;;3.87;57.31;99625.78;121714;1155;24808;-73
2021/04/05 01:39:38;;;;;;;23.85;17.93;;;;;;;3.84;57.34;99618.23;121742;1155;22554;-74
2021/04/05 01:42:09;;;;;;;22.40;17.35;;;;;;;3.84;57.32;99618.23;121670;1155;22567;-74
2021/04/05 01:44:39;;;;;;;19.85;17.75;;;;;;;3.82;57.54;99613.13;121724;1155;22550;-76
2021/04/05 01:47:11;;;;;;;24.53;16.80;;;;;;;3.78;57.57;99604.76;122169;1152;22649;-75
2021/04/05 01:49:41;;;;;;;22.25;17.20;;;;;;;3.79;57.65;99600.35;122193;1152;22617;-76
2021/04/05 01:52:13;;;;;;;21.55;16.13;;;;;;;3.80;57.82;99594.18;122331;1152;22867;-75
2021/04/05 01:54:42;;;;;;;24.58;17.55;;;;;;;3.84;57.76;99594.72;122286;1152;22562;-75
2021/04/05 01:57:14;;;;;;;22.30;15.53;;;;;;;3.86;57.82;99592.77;122146;1152;22560;-75
2021/04/05 01:59:44;;;;;;;20.40;16.10;;;;;;;3.86;57.92;99590.16;122313;1152;22548;-75
2021/04/05 02:02:17;;;;;;;23.88;16.78;;;;;;;3.87;57.80;99597.05;122221;1152;22554;-75
2021/04/05 02:04:48;;;;;;;22.85;18.28;;;;;;;3.86;57.87;99587.54;122330;1152;23424;-74
2021/04/05 02:07:19;;;;;;;31.85;19.75;;;;;;;3.85;57.94;99580.67;122285;1152;22608;-74
2021/04/05 02:09:51;;;;;;;25.48;19.35;;;;;;;3.82;57.70;99565.28;122439;1152;22547;-74
2021/04/05 02:12:20;;;;;;;27.00;22.63;;;;;;;3.82;57.99;99560.06;121612;1155;22583;-74
2021/04/05 02:14:49;;;;;;;26.10;20.13;;;;;;;3.80;58.00;99559.37;121724;1156;22553;-75
2021/04/05 02:17:19;;;;;;;25.33;16.65;;;;;;;3.76;58.15;99557.04;121770;1155;25877;-75
2021/04/05 02:19:47;;;;;;;18.90;13.60;;;;;;;3.75;58.01;99542.34;121760;1155;24726;-75
2021/04/05 02:22:22;;;;;;;21.98;14.63;;;;;;;3.75;58.01;99534.50;121665;1155;22549;-75
2021/04/05 02:24:54;;;;;;;21.05;13.88;;;;;;;3.74;58.18;99525.03;121449;1158;22583;-75
2021/04/05 02:27:23;;;;;;;20.38;12.25;;;;;;;3.72;58.29;99516.50;121296;1158;24798;-75
2021/04/05 02:29:53;;;;;;;19.85;12.15;;;;;;;3.69;58.35;99505.52;121548;1157;22792;-75
2021/04/05 02:32:21;;;;;;;18.15;13.15;;;;;;;3.65;58.21;99494.55;121758;1156;24711;-75
2021/04/05 02:34:51;;;;;;;20.20;13.38;;;;;;;3.62;58.33;99494.83;121697;1155;24758;-74
2021/04/05 02:37:20;;;;;;;20.13;12.98;;;;;;;3.58;58.27;99487.44;121711;1155;22575;-74
2021/04/05 02:39:51;;;;;;;21.90;12.73;;;;;;;3.56;58.43;99484.14;121678;1155;22623;-74
2021/04/05 02:42:21;;;;;;;;;;;;;;;3.47;58.30;99478.00;121783;1158;22561;-74
2021/04/05 02:44:55;;;;;;;20.23;11.83;;;;;;;3.39;58.79;99477.88;121693;1155;23229;-74
2021/04/05 02:47:24;;;;;;;21.70;13.68;;;;;;;3.39;58.67;99480.49;121989;1155;24452;-74
2021/04/05 02:49:53;;;;;;;19.60;13.55;;;;;;;3.41;58.85;99473.35;121903;1152;24695;-74
2021/04/05 02:52:24;;;;;;;18.83;13.73;;;;;;;3.39;58.81;99473.48;122494;1152;22595;-74
2021/04/05 02:54:53;;;;;;;17.43;13.00;;;;;;;3.39;58.83;99464.83;122166;1152;22540;-74
2021/04/05 02:57:22;;;;;;;23.23;14.53;;;;;;;3.40;58.95;99453.41;122290;1154;22544;-75
2021/04/05 02:59:54;;;;;;;22.40;15.10;;;;;;;3.40;59.09;99450.80;122291;1152;22649;-74
2021/04/05 03:02:28;;;;;;;23.10;14.83;;;;;;;3.37;58.97;99453.72;122195;1153;22653;-74
2021/04/05 03:05:06;;;;;;;17.50;12.33;;;;;;;3.33;58.98;99436.67;122173;1152;22630;-75
2021/04/05 03:07:37;;;;;;;22.28;14.30;;;;;;;3.32;59.19;99435.05;122265;1152;22592;-75
2021/04/05 03:10:15;;;;;;;18.98;13.70;;;;;;;3.29;59.17;99423.09;122273;1152;22530;-74
2021/04/05 03:12:44;;;;;;;21.98;14.63;;;;;;;3.26;59.27;99421.59;122327;1152;22544;-74
2021/04/05 03:15:18;;;;;;;19.47;14.50;;;;;;;3.21;59.20;99413.38;122278;1152;22579;-74
2021/04/05 03:17:49;;;;;;;25.90;13.73;;;;;;;3.15;59.39;99398.29;122194;1152;22545;-74
2021/04/05 03:20:21;;;;;;;23.95;17.00;;;;;;;3.13;59.39;99394.98;122155;1152;22547;-74
2021/04/05 03:22:51;;;;;;;30.63;20.50;;;;;;;3.10;59.56;99390.09;122150;1152;22545;-75
2021/04/05 03:25:23;;;;;;;22.93;16.68;;;;;;;3.11;59.78;99376.06;122509;1152;22603;-75
2021/04/05 03:28:02;;;;;;;24.03;17.03;;;;;;;3.09;59.76;99367.55;122236;1152;22553;-75
2021/04/05 03:30:44;;;;;;;23.05;14.65;;;;;;;3.10;59.81;99363.99;121773;1155;22660;-75
2021/04/05 03:34:12;;;;;;;24.50;14.38;;;;;;;3.05;59.88;99361.80;121803;1155;22554;-75
2021/04/05 03:37:05;;;;;;;21.48;14.88;;;;;;;3.02;59.59;99350.83;121738;1155;22553;-75
2021/04/05 03:39:36;;;;;;;24.93;15.18;;;;;;;2.98;60.23;99339.04;121711;1155;22549;-75
2021/04/05 03:42:27;;;;;;;22.30;15.00;;;;;;;2.91;60.15;99324.93;121652;1155;25302;-75
2021/04/05 03:45:30;;;;;;;26.15;16.65;;;;;;;2.86;60.25;99322.73;121493;1158;22583;-75
2021/04/05 03:48:18;;;;;;;22.38;14.80;;;;;;;2.82;61.01;99316.98;121535;1155;22644;-75
2021/04/05 03:51:13;;;;;;;22.45;15.78;;;;;;;2.84;60.54;99303.81;122063;1155;22562;-75
2021/04/05 03:54:08;;;;;;;22.50;14.28;;;;;;;2.85;60.54;99297.63;121777;1155;23487;-75
2021/04/05 03:56:51;;;;;;;23.83;15.73;;;;;;;2.85;60.62;99286.38;121684;1155;23023;-75
2021/04/05 03:59:31;;;;;;;22.10;15.60;;;;;;;2.83;60.43;99284.73;121720;1155;22633;-75
2021/04/05 04:02:19;;;;;;;22.45;15.08;;;;;;;2.83;60.58;99282.13;121813;1155;22854;-75
2021/04/05 04:05:09;;;;;;;21.77;14.45;;;;;;;2.83;60.09;99284.73;122058;1155;22561;-75
2021/04/05 04:08:28;;;;;;;22.30;15.37;;;;;;;2.86;60.52;99280.19;122041;1155;22562;-75
2021/04/05 04:10:33;;;;;;;24.65;15.70;;;;;;;2.88;60.71;99275.66;121891;1155;22551;-75
2021/04/05 04:13:11;;;;;;;25.60;16.35;;;;;;;2.89;60.61;99266.85;122288;1152;25183;-74
2021/04/05 04:15:43;;;;;;;27.35;16.68;;;;;;;2.86;60.61;99257.52;122170;1152;22545;-75
2021/04/05 04:18:12;;;;;;;23.33;15.27;;;;;;;2.86;60.58;99254.09;122046;1155;24695;-75
2021/04/05 04:20:46;;;;;;;27.15;16.60;;;;;;;2.82;60.67;99241.34;121659;1157;22552;-75
2021/04/05 04:23:16;;;;;;;23.70;16.83;;;;;;;2.77;60.61;99237.55;121643;1155;24552;-75
2021/04/05 04:25:44;;;;;;;24.03;16.90;;;;;;;2.73;60.59;99229.20;121493;1158;23374;-74
2021/04/05 04:28:17;;;;;;;24.30;16.95;;;;;;;2.74;60.95;99219.58;121174;1161;22594;-73
2021/04/05 04:30:58;;;;;;;27.20;18.85;;;;;;;2.70;61.32;99211.23;121027;1161;22582;-73
2021/04/05 04:33:32;;;;;;;26.83;17.83;;;;;;;2.73;61.11;99197.91;121181;1161;22560;-75
2021/04/05 04:36:08;;;;;;;27.88;17.70;;;;;;;2.78;61.18;99197.45;121317;1158;23110;-74
2021/04/05 04:38:38;;;;;;;24.38;14.68;;;;;;;2.83;61.08;99203.03;121539;1158;25314;-74
2021/04/05 04:41:08;;;;;;;29.30;17.88;;;;;;;2.85;60.82;99208.13;121282;1158;22671;-74
2021/04/05 04:43:38;;;;;;;22.23;16.48;;;;;;;2.81;60.86;99205.80;121278;1158;22892;-75
2021/04/05 04:46:06;;;;;;;26.58;17.85;;;;;;;2.81;60.96;99202.38;121720;1155;22558;-75
2021/04/05 04:48:38;;;;;;;23.23;18.40;;;;;;;2.85;60.94;99195.90;121775;1155;25025;-75
2021/04/05 04:51:10;;;;;;;24.27;18.43;;;;;;;2.88;60.97;99179.14;122009;1152;22544;-75
2021/04/05 04:53:40;;;;;;;24.23;20.55;;;;;;;2.87;60.93;99169.69;122309;1152;23632;-74
2021/04/05 04:56:15;;;;;;;;;;;;;;;2.87;60.91;99167.89;122208;1156;22572;-74
2021/04/05 04:58:44;;;;;;;29.35;26.33;;;;;;;2.88;60.95;99171.31;121747;1155;21398;-74
2021/04/05 05:01:18;;;;;;;34.35;28.68;;;;;;;2.96;60.97;99163.56;121727;1155;24724;-74
2021/04/05 05:03:54;;;;;;;31.98;28.40;;;;;;;3.00;60.67;99167.50;121569;1158;22495;-76
2021/04/05 05:06:23;;;;;;;31.03;27.93;;;;;;;3.04;60.76;99150.61;121507;1158;22596;-74
2021/04/05 05:08:57;;;;;;;35.05;27.85;;;;;;;3.11;60.70;99151.65;121511;1158;22652;-74
2021/04/05 05:11:28;;;;;;;35.13;29.48;;;;;;;3.14;60.51;99148.74;121223;1161;25431;-76
2021/04/05 05:13:57;;;;;;;30.25;27.18;;;;;;;3.15;60.37;99152.98;121184;1161;23797;-75
2021/04/05 05:16:26;;;;;;;32.03;28.13;;;;;;;3.13;60.37;99144.47;121271;1158;22578;-74
2021/04/05 05:18:58;;;;;;;29.25;25.45;;;;;;;3.19;60.47;99141.27;121273;1157;22635;-78
2021/04/05 05:21:41;;;;;;;28.08;25.25;;;;;;;3.28;60.54;99135.16;121441;1155;22556;-73
2021/04/05 05:24:13;;;;;;;28.83;23.68;;;;;;;3.35;60.32;99139.78;121551;1158;22571;-73
2021/04/05 05:26:43;;;;;;;24.45;20.98;;;;;;;3.43;60.13;99134.61;121548;1159;22552;-74
2021/04/05 05:29:21;;;;;;;26.00;22.20;;;;;;;3.54;60.32;99127.36;121391;1155;24713;-74
2021/04/05 05:31:50;;;;;;;23.53;21.03;;;;;;;3.59;59.34;99108.61;121837;1155;22554;-74
2021/04/05 05:34:22;;;;;;;21.30;18.73;;;;;;;3.64;59.37;99101.16;121609;1155;22556;-74
2021/04/05 05:36:52;;;;;;;22.08;19.68;;;;;;;3.71;58.91;99107.39;122117;1155;22564;-74
2021/04/05 05:39:21;;;;;;;20.75;17.93;;;;;;;3.77;59.09;99105.97;121612;1158;24438;-77
2021/04/05 05:42:06;;;;;;;27.63;17.00;;;;;;;3.85;58.96;99107.80;121657;1159;24728;-75
2021/04/05 05:44:56;;;;;;;18.60;15.67;;;;;;;3.86;58.50;99102.41;121578;1158;22551;-77
2021/04/05 05:47:27;;;;;;;17.33;14.75;;;;;;;3.93;58.86;99095.61;121576;1158;22555;-76
2021/04/05 05:50:15;;;;;;;17.00;14.20;;;;;;;4.09;58.71;99094.02;121482;1157;22567;-76
2021/04/05 05:53:08;;;;;;;16.80;13.25;;;;;;;4.22;58.51;99084.77;121328;1158;23014;-76
2021/04/05 05:56:02;;;;;;;18.10;13.18;;;;;;;4.36;57.89;99085.14;121456;1161;22590;-77
2021/04/05 05:59:17;;;;;;;16.43;12.58;;;;;;;4.54;58.11;99072.78;121673;1158;22574;-77
2021/04/05 06:02:17;;;;;;;18.90;13.23;;;;;;;4.79;58.00;99072.81;121754;1158;22623;-77
2021/04/05 06:05:08;;;;;;;16.45;13.90;;;;;;;5.11;57.78;99077.25;121289;1158;22585;-76
2021/04/05 06:08:26;;;;;;;17.33;13.78;;;;;;;5.42;57.42;99072.96;121682;1158;22632;-78
2021/04/05 06:11:46;;;;;;;17.70;14.73;;;;;;;5.82;56.75;99066.00;121472;1158;22640;-77
2021/04/05 06:14:30;;;;;;;22.10;16.35;;;;;;;6.16;55.76;99053.62;121670;1156;24696;-76
2021/04/05 06:17:10;;;;;;;23.20;18.05;;;;;;;6.51;55.06;99039.18;121641;1156;23445;-78
2021/04/05 06:19:47;;;;;;;19.33;14.38;;;;;;;6.80;54.81;99047.19;121488;1158;22568;-78
2021/04/05 06:22:29;;;;;;;12.73;9.70;;;;;;;7.03;53.60;99044.55;121255;1158;22641;-76
2021/04/05 06:25:22;;;;;;;;;;;;;;;7.04;52.10;99035.67;121239;1162;23054;-75
2021/04/05 06:28:10;;;;;;;12.90;7.63;;;;;;;7.08;52.25;99021.19;121167;1158;21347;-75
2021/04/05 06:31:12;;;;;;;11.30;6.53;;;;;;;7.14;51.42;99006.53;121565;1158;22630;-76
2021/04/05 06:33:52;;;;;;;10.00;6.60;;;;;;;7.20;51.09;99000.58;121265;1159;22777;-75
2021/04/05 06:36:38;;;;;;;10.55;7.00;;;;;;;7.28;50.64;98994.41;121219;1158;22638;-76
2021/04/05 06:39:24;;;;;;;13.95;7.78;;;;;;;7.35;50.61;98990.06;121477;1158;22563;-75
2021/04/05 06:42:05;;;;;;;9.68;7.15;;;;;;;7.40;49.65;98987.73;121609;1158;22565;-75
2021/04/05 06:45:15;;;;;;;13.68;10.43;;;;;;;7.43;49.69;98995.25;121589;1156;23029;-75
2021/04/05 06:48:31;;;;;;;11.20;7.68;;;;;;;7.48;49.36;98985.00;121735;1157;22563;-74
2021/04/05 06:51:35;;;;;;;16.33;10.93;;;;;;;7.59;49.36;98975.84;121367;1158;22559;-75
2021/04/05 06:54:36;;;;;;;23.35;14.55;;;;;;;7.79;49.52;98976.91;121665;1155;24719;-74
2021/04/05 06:57:19;;;;;;;23.00;14.40;;;;;;;8.12;49.25;98973.05;121616;1158;23342;-76
2021/04/05 07:00:37;;;;;;;20.38;12.28;;;;;;;8.23;48.26;98972.55;121614;1158;22571;-76
2021/04/05 07:03:13;;;;;;;14.43;8.75;;;;;;;8.30;47.54;98976.09;121143;1161;22622;-75
2021/04/05 07:06:26;;;;;;;14.87;10.07;;;;;;;8.30;47.33;98980.52;121227;1162;22567;-75
2021/04/05 07:08:57;;;;;;;11.87;8.10;;;;;;;8.31;47.24;98961.12;121302;1161;25962;-75
2021/04/05 07:11:46;;;;;;;12.53;9.50;;;;;;;8.29;47.19;98953.39;121142;1161;22579;-75
2021/04/05 07:14:40;;;;;;;16.40;9.85;;;;;;;8.25;46.85;98933.73;120895;1164;24739;-75
2021/04/05 07:17:50;;;;;;;16.35;10.15;;;;;;;8.20;47.07;98944.02;120893;1164;23341;-76
2021/04/05 07:21:02;;;;;;;12.38;9.20;;;;;;;8.15;46.95;98935.85;120956;1162;22628;-75
2021/04/05 07:24:22;;;;;;;14.35;8.90;;;;;;;8.09;47.02;98931.33;120934;1164;24719;-75
2021/04/05 07:27:22;;;;;;;19.13;12.93;;;;;;;8.08;47.02;98921.82;120977;1160;22579;-75
2021/04/05 07:30:13;;;;;;;14.20;10.73;;;;;;;8.16;47.26;98908.53;121221;1158;22562;-77
2021/04/05 07:33:19;;;;;;;16.50;9.33;;;;;;;8.24;46.85;98897.91;121328;1158;22556;-75
2021/04/05 07:36:02;;;;;;;12.23;9.18;;;;;;;8.35;46.92;98894.77;121547;1157;22554;-75
2021/04/05 07:38:30;;;;;;;16.15;11.28;;;;;;;8.47;46.65;98895.11;121778;1155;22560;-75
2021/04/05 07:41:07;;;;;;;14.68;9.60;;;;;;;8.51;46.16;98893.72;122081;1155;22557;-75
2021/04/05 07:43:59;;;;;;;18.48;10.63;;;;;;;8.62;46.46;98876.59;122137;1155;22544;-75
2021/04/05 07:46:38;;;;;;;15.75;10.55;;;;;;;8.94;46.94;98846.23;122139;1155;22546;-75
2021/04/05 07:49:25;;;;;;;15.55;11.60;;;;;;;9.32;46.50;98843.16;121861;1156;22596;-75
2021/04/05 07:52:04;;;;;;;18.33;10.48;;;;;;;9.71;45.33;98833.77;121815;1155;22551;-75
2021/04/05 07:54:36;;;;;;;21.13;15.95;;;;;;;9.93;45.04;98847.60;122053;1154;22549;-75
2021/04/05 07:57:26;;;;;;;16.47;10.43;;;;;;;10.24;44.90;98836.50;122220;1152;22547;-77
2021/04/05 08:00:08;;;;;;;19.38;14.43;;;;;;;10.63;44.33;98826.95;122279;1154;22545;-75
2021/04/05 08:03:03;;;;;;;16.38;11.28;;;;;;;10.78;43.16;98825.70;122183;1152;24687;-74
2021/04/05 08:05:44;;;;;;;15.53;11.23;;;;;;;10.90;42.73;98823.27;122485;1152;22568;-75
2021/04/05 08:08:31;;;;;;;27.75;18.13;;;;;;;10.94;42.60;98826.30;122167;1151;22537;-75
2021/04/05 08:11:43;;;;;;;14.63;11.50;;;;;;;11.14;42.55;98821.77;122061;1155;24433;-74
2021/04/05 08:14:51;;;;;;;26.78;20.03;;;;;;;11.47;42.73;98816.34;121558;1158;22569;-77
2021/04/05 08:18:01;;;;;;;16.53;10.85;;;;;;;11.91;42.75;98812.04;121639;1158;22594;-75
2021/04/05 08:20:43;;;;;;;18.13;12.80;;;;;;;12.29;42.01;98807.69;121581;1158;24799;-74
2021/04/05 08:23:53;;;;;;;14.28;10.10;;;;;;;12.62;41.29;98792.30;121505;1157;22572;-77
2021/04/05 08:27:06;;;;;;;15.05;9.93;;;;;;;12.80;40.63;98790.73;121627;1158;22628;-74
2021/04/05 08:30:08;;;;;;;15.23;11.68;;;;;;;13.00;40.33;98783.36;121135;1161;22603;-74
2021/04/05 08:33:11;;;;;;;14.18;11.13;;;;;;;13.30;40.21;98777.33;121363;1158;22586;-75
2021/04/05 08:35:40;;;;;;;16.93;10.58;;;;;;;13.41;39.20;98769.41;121553;1155;22668;-75
2021/04/05 08:38:38;;;;;;;21.80;9.70;;;;;;;13.41;38.36;98776.55;121648;1155;22572;-76
2021/04/05 08:41:38;;;;;;;16.78;9.70;;;;;;;13.37;38.62;98762.94;121684;1155;24718;-75
2021/04/05 08:45:02;;;;;;;14.95;9.88;;;;;;;13.34;38.39;98751.97;121569;1155;22577;-75
2021/04/05 08:47:32;;;;;;;14.60;9.53;;;;;;;13.36;38.20;98745.41;121164;1158;22599;-75
2021/04/05 08:50:10;;;;;;;14.75;8.95;;;;;;;13.39;38.00;98744.13;121193;1161;24965;-75
2021/04/05 08:52:46;;;;;;;22.48;10.03;;;;;;;13.47;37.86;98733.22;121278;1159;22631;-75
2021/04/05 08:55:28;;;;;;;17.55;9.23;;;;;;;13.42;37.21;98733.88;121219;1158;22662;-75
2021/04/05 08:58:23;;;;;;;15.30;8.15;;;;;;;13.44;37.15;98743.47;121207;1161;22675;-76
2021/04/05 09:01:01;;;;;;;26.83;12.85;;;;;;;13.39;36.75;98736.17;121176;1158;22639;-76
2021/04/05 09:03:33;;;;;;;22.98;11.00;;;;;;;13.34;36.64;98744.81;121177;1161;24822;-74
2021/04/05 09:06:21;;;;;;;17.83;8.05;;;;;;;13.23;36.70;98723.51;121000;1158;24753;-74
2021/04/05 09:08:51;;;;;;;23.50;8.30;;;;;;;13.21;36.75;98730.89;121060;1161;22607;-74
2021/04/05 09:11:22;;;;;;;32.60;9.60;;;;;;;13.28;36.79;98711.23;121136;1161;22608;-76
2021/04/05 09:13:59;;;;;;;17.05;8.05;;;;;;;13.21;36.23;98707.03;121107;1161;24658;-74
2021/04/05 09:17:21;;;;;;;18.70;12.05;;;;;;;13.12;36.53;98714.48;121125;1161;22638;-74
2021/04/05 09:20:17;;;;;;;17.00;9.70;;;;;;;12.94;36.48;98713.48;120856;1164;22612;-76
2021/04/05 09:23:07;;;;;;;17.80;8.70;;;;;;;12.85;36.80;98706.86;121025;1161;22692;-75
2021/04/05 09:26:08;;;;;;;25.45;8.65;;;;;;;12.76;36.67;98702.08;121513;1158;22580;-74
2021/04/05 09:29:41;;;;;;;16.23;8.53;;;;;;;12.59;36.74;98702.67;121719;1158;25362;-74
2021/04/05 09:32:41;;;;;;;17.20;8.73;;;;;;;12.38;37.19;98693.33;120938;1164;24849;-74
2021/04/05 09:35:51;;;;;;;19.35;11.10;;;;;;;12.20;37.12;98686.19;120955;1164;22568;-74
2021/04/05 09:39:05;;;;;;;16.40;8.30;;;;;;;12.02;37.83;98680.86;120988;1164;22579;-74
2021/04/05 09:41:45;;;;;;;;;;;;;;;11.88;37.52;98680.17;121051;1165;22793;-75
2021/04/05 09:44:46;;;;;;;18.60;9.93;;;;;;;11.83;38.07;98653.53;120943;1163;21355;-75
2021/04/05 09:47:27;;;;;;;13.90;8.93;;;;;;;11.78;38.15;98656.01;120783;1166;22604;-75
2021/04/05 09:50:20;;;;;;;15.65;8.90;;;;;;;11.77;38.06;98663.14;120755;1164;22607;-75
2021/04/05 09:53:23;;;;;;;13.77;7.90;;;;;;;11.77;38.42;98655.20;120950;1164;22914;-77
2021/04/05 09:56:01;;;;;;;15.37;9.27;;;;;;;11.74;38.72;98658.28;121112;1161;22580;-75
2021/04/05 09:58:54;;;;;;;15.77;8.73;;;;;;;11.76;38.35;98643.02;121173;1161;22571;-74
2021/04/05 10:01:31;;;;;;;17.67;9.67;;;;;;;11.65;38.26;98637.60;121101;1164;22569;-75
2021/04/05 10:04:08;;;;;;;22.28;10.70;;;;;;;11.67;38.40;98635.56;121207;1161;22574;-75
2021/04/05 10:06:39;;;;;;;16.65;9.30;;;;;;;11.66;38.44;98629.47;121224;1158;22567;-74
2021/04/05 10:09:09;;;;;;;17.90;9.88;;;;;;;11.63;38.32;98621.97;121473;1158;22664;-75
2021/04/05 10:11:45;;;;;;;15.13;8.23;;;;;;;11.63;38.28;98618.48;122057;1152;22551;-75
2021/04/05 10:14:18;;;;;;;14.83;8.15;;;;;;;11.56;38.42;98629.12;121713;1155;23463;-74
2021/04/05 10:16:52;;;;;;;18.05;9.85;;;;;;;11.53;38.65;98633.03;121676;1155;24702;-74
2021/04/05 10:19:38;;;;;;;20.93;11.35;;;;;;;11.51;38.50;98616.55;121574;1158;22553;-74
2021/04/05 10:22:18;;;;;;;15.93;9.63;;;;;;;11.52;38.82;98622.65;121215;1161;22579;-74
2021/04/05 10:24:55;;;;;;;19.70;9.10;;;;;;;11.52;38.79;98618.16;121039;1159;22634;-74
2021/04/05 10:27:26;;;;;;;14.00;8.23;;;;;;;11.52;38.76;98612.07;121229;1161;24818;-74
2021/04/05 10:29:56;;;;;;;;;;;;;;;11.48;38.64;98610.89;121258;1162;23266;-75
2021/04/05 10:32:27;;;;;;;14.73;9.68;;;;;;;11.46;39.12;98589.97;121347;1159;21364;-75
2021/04/05 10:34:58;;;;;;;15.45;10.25;;;;;;;11.48;38.82;98601.12;121557;1158;22628;-75
2021/04/05 10:37:43;;;;;;;30.08;15.00;;;;;;;11.46;38.79;98595.26;121729;1155;22557;-74
2021/04/05 10:40:17;;;;;;;18.85;12.95;;;;;;;11.47;38.81;98598.70;121915;1152;24699;-74
2021/04/05 10:43:17;;;;;;;21.70;11.65;;;;;;;11.48;38.33;98600.31;121751;1155;24797;-74
2021/04/05 10:45:58;;;;;;;19.53;12.10;;;;;;;11.45;38.58;98588.33;121734;1155;22561;-74
2021/04/05 10:48:59;;;;;;;17.43;9.40;;;;;;;11.42;38.43;98586.11;122086;1155;23016;-74
2021/04/05 10:51:43;;;;;;;18.00;10.48;;;;;;;11.39;38.65;98577.81;121337;1158;22571;-74
2021/04/05 10:54:28;;;;;;;14.95;8.38;;;;;;;11.39;38.75;98577.81;121577;1159;22657;-78
2021/04/05 10:57:29;;;;;;;21.00;10.58;;;;;;;11.45;38.75;98558.44;121180;1158;23058;-76
2021/04/05 11:00:17;;;;;;;19.88;13.45;;;;;;;11.51;38.87;98555.73;121297;1158;22652;-77
2021/04/05 11:02:57;;;;;;;18.45;10.85;;;;;;;11.55;38.33;98543.69;121494;1158;23345;-76
2021/04/05 11:05:26;;;;;;;19.03;9.65;;;;;;;11.59;38.35;98544.06;121486;1158;22708;-76
2021/04/05 11:07:59;;;;;;;18.95;8.65;;;;;;;11.65;38.48;98543.19;121591;1158;25761;-75
2021/04/05 11:10:37;;;;;;;24.88;12.90;;;;;;;11.68;38.33;98542.76;121680;1155;22625;-76
2021/04/05 11:13:14;;;;;;;25.48;14.98;;;;;;;11.72;38.43;98535.19;122086;1155;25208;-77
2021/04/05 11:15:45;;;;;;;35.18;19.15;;;;;;;11.76;38.32;98523.97;121736;1155;23438;-78
2021/04/05 11:18:19;;;;;;;29.68;11.58;;;;;;;11.78;38.26;98523.73;121710;1157;22633;-77
2021/04/05 11:21:02;;;;;;;16.90;11.10;;;;;;;11.75;38.20;98532.11;121739;1152;22644;-77
2021/04/05 11:23:35;;;;;;;18.08;12.30;;;;;;;11.73;38.21;98518.31;122311;1151;22550;-77
2021/04/05 11:26:07;;;;;;;18.20;10.93;;;;;;;11.73;38.11;98515.66;122266;1152;24705;-78
2021/04/05 11:28:42;;;;;;;26.05;15.45;;;;;;;11.70;38.36;98527.48;122200;1154;22543;-77
2021/04/05 11:31:17;;;;;;;21.83;12.13;;;;;;;11.70;38.60;98524.84;122038;1155;22557;-76
2021/04/05 11:33:59;;;;;;;21.10;12.48;;;;;;;11.70;38.44;98524.84;121675;1155;22995;-76
2021/04/05 11:36:58;;;;;;;25.98;13.23;;;;;;;11.68;38.84;98511.02;121803;1154;22572;-76
2021/04/05 11:39:34;;;;;;;22.17;12.97;;;;;;;11.67;39.07;98508.61;121846;1155;22778;-76
2021/04/05 11:42:05;;;;;;;22.58;12.78;;;;;;;11.72;38.68;98514.03;122109;1155;25252;-74
2021/04/05 11:44:53;;;;;;;25.58;15.73;;;;;;;11.76;38.81;98510.74;121767;1155;22568;-74
2021/04/05 11:47:26;;;;;;;31.85;17.68;;;;;;;11.78;38.98;98505.22;121759;1155;25179;-74
2021/04/05 11:49:55;;;;;;;26.10;13.90;;;;;;;11.82;38.88;98492.36;121831;1156;22635;-76
2021/04/05 11:52:40;;;;;;;18.13;11.78;;;;;;;11.75;38.90;98493.23;121827;1155;22550;-74
2021/04/05 11:55:18;;;;;;;33.43;18.47;;;;;;;11.70;39.02;98487.81;121951;1155;24508;-76
2021/04/05 11:58:11;;;;;;;24.38;14.10;;;;;;;11.72;39.21;98490.22;122263;1152;23336;-76
2021/04/05 12:00:54;;;;;;;27.18;17.73;;;;;;;11.72;39.33;98472.51;122170;1152;23240;-75
2021/04/05 12:03:59;;;;;;;26.10;18.67;;;;;;;11.76;39.27;98465.77;122284;1152;22554;-75
2021/04/05 12:06:47;;;;;;;24.73;16.25;;;;;;;11.83;39.21;98472.80;122297;1153;23771;-75
2021/04/05 12:09:33;;;;;;;34.38;25.13;;;;;;;11.90;39.48;98465.64;122252;1154;22537;-73
2021/04/05 12:12:04;;;;;;;38.58;18.73;;;;;;;11.97;39.67;98461.88;122324;1152;22938;-74
2021/04/05 12:14:38;;;;;;;27.33;16.05;;;;;;;12.03;39.64;98460.19;122187;1152;24707;-76
2021/04/05 12:17:07;;;;;;;19.00;12.63;;;;;;;12.02;39.40;98463.84;121703;1155;23579;-75
2021/04/05 12:19:42;;;;;;;19.03;12.08;;;;;;;12.08;39.00;98440.98;121791;1155;24254;-75